Time;durP1;ratioP1;P1;durP2;ratioP2;P2;SDS_P1;SDS_P2;PMS_P1;PMS_P2;Temp;Humidity;BMP_temperature;BMP_pressure;BME280_temperature;BME280_humidity;BME280_pressure;Samples;Min_cycle;Max_cycle;Signal;HPM_P1;HPM_P2
2021/07/14 00:00:56;;;;;;;28.55;19.02;;;20.60;99.90;;;;;;4990396;28;20108;-43
2021/07/14 00:03:21;;;;;;;28.65;19.63;;;20.60;99.90;;;;;;4988475;28;20030;-42
2021/07/14 00:05:47;;;;;;;25.25;17.88;;;20.60;99.90;;;;;;4989956;28;20026;-43
2021/07/14 00:08:13;;;;;;;25.23;18.42;;;20.60;99.90;;;;;;4989611;28;20566;-40
2021/07/14 00:10:39;;;;;;;22.13;18.00;;;20.60;99.90;;;;;;4989221;28;20049;-41
2021/07/14 00:13:18;;;;;;;25.58;17.85;;;20.60;99.90;;;;;;4989759;28;20374;-42
2021/07/14 00:23:32;;;;;;;25.25;18.00;;;20.50;99.90;;;;;;4989328;28;20062;-43
2021/07/14 00:25:58;;;;;;;26.63;18.25;;;20.60;99.90;;;;;;4988684;28;20041;-43
2021/07/14 00:28:25;;;;;;;22.75;17.67;;;20.60;99.90;;;;;;4988959;28;20018;-42
2021/07/14 00:30:56;;;;;;;22.23;15.98;;;20.60;99.90;;;;;;4989612;28;20022;-42
2021/07/14 00:33:22;;;;;;;22.98;16.10;;;20.60;99.90;;;;;;4988954;28;20153;-43
2021/07/14 00:35:48;;;;;;;22.15;16.65;;;20.60;99.90;;;;;;4979690;28;20414;-42
2021/07/14 00:38:13;;;;;;;23.15;17.30;;;20.60;99.90;;;;;;4989067;28;20482;-43
2021/07/14 00:40:40;;;;;;;18.50;14.45;;;20.60;99.90;;;;;;4989006;28;20026;-42
2021/07/14 00:43:06;;;;;;;25.48;18.05;;;20.60;99.90;;;;;;4990405;28;20037;-43
2021/07/14 00:45:32;;;;;;;19.90;16.45;;;20.60;99.90;;;;;;4988479;28;20122;-43
2021/07/14 00:48:00;;;;;;;21.00;16.23;;;20.60;99.90;;;;;;4990356;28;20101;-42
2021/07/14 00:50:25;;;;;;;24.88;17.92;;;20.60;99.90;;;;;;4988716;28;20019;-42
2021/07/14 00:52:51;;;;;;;20.45;15.98;;;20.60;99.90;;;;;;4992583;28;20023;-42
2021/07/14 00:55:16;;;;;;;20.65;15.68;;;20.60;99.90;;;;;;4993216;28;20113;-42
2021/07/14 00:57:42;;;;;;;19.35;15.48;;;20.60;99.90;;;;;;4992484;28;20077;-41
2021/07/14 01:00:10;;;;;;;20.70;15.60;;;20.60;99.90;;;;;;4992454;28;20030;-43
2021/07/14 01:02:36;;;;;;;21.95;17.13;;;20.60;99.90;;;;;;4992883;28;20018;-43
2021/07/14 01:05:04;;;;;;;18.42;14.95;;;20.60;99.90;;;;;;4992624;28;20050;-43
2021/07/14 01:07:52;;;;;;;18.60;15.38;;;20.60;99.90;;;;;;4991679;28;20474;-43
2021/07/14 01:10:48;;;;;;;18.90;15.57;;;20.60;99.90;;;;;;4993079;28;20018;-42
2021/07/14 01:13:35;;;;;;;21.17;15.75;;;20.60;99.90;;;;;;4992943;28;20425;-43
2021/07/14 01:16:07;;;;;;;17.73;15.07;;;20.50;99.90;;;;;;4992865;28;20092;-43
2021/07/14 01:18:47;;;;;;;20.05;15.20;;;20.60;99.90;;;;;;4972638;28;20023;-43
2021/07/14 01:21:19;;;;;;;18.13;14.73;;;20.50;99.90;;;;;;4988326;28;20117;-42
2021/07/14 01:24:08;;;;;;;21.63;16.33;;;20.60;99.90;;;;;;4973418;28;20027;-43
2021/07/14 01:26:58;;;;;;;19.45;15.52;;;20.60;99.90;;;;;;4989677;28;20038;-41
2021/07/14 01:29:25;;;;;;;16.55;13.88;;;20.60;99.90;;;;;;4976198;28;20420;-37
2021/07/14 01:31:52;;;;;;;19.63;16.08;;;20.60;99.90;;;;;;4992510;28;20026;-40
2021/07/14 01:34:21;;;;;;;19.13;15.98;;;20.60;99.90;;;;;;4992731;28;20022;-43
2021/07/14 01:36:50;;;;;;;22.38;16.00;;;20.60;99.90;;;;;;4992152;28;20056;-42
2021/07/14 01:39:16;;;;;;;18.15;14.48;;;20.60;99.90;;;;;;4972917;28;20461;-42
2021/07/14 01:41:45;;;;;;;20.08;15.93;;;20.60;99.90;;;;;;4985720;28;20027;-43
2021/07/14 01:44:11;;;;;;;18.70;15.70;;;20.50;99.90;;;;;;4992886;28;20022;-41
2021/07/14 01:46:40;;;;;;;18.60;14.98;;;20.50;99.90;;;;;;4991357;28;20433;-44
2021/07/14 01:49:14;;;;;;;19.10;13.60;;;20.50;99.90;;;;;;4991940;28;20106;-43
2021/07/14 01:51:45;;;;;;;20.95;14.25;;;20.50;99.90;;;;;;4991761;28;20042;-42
2021/07/14 01:54:14;;;;;;;17.50;13.85;;;20.40;99.90;;;;;;4992249;28;20054;-43
2021/07/14 01:56:43;;;;;;;16.45;13.43;;;20.40;99.90;;;;;;4991317;28;20018;-43
2021/07/14 01:59:11;;;;;;;20.55;15.32;;;20.50;99.90;;;;;;4992198;28;20023;-43
2021/07/14 02:01:39;;;;;;;17.45;14.35;;;20.40;99.90;;;;;;4991652;28;20022;-43
2021/07/14 02:06:50;;;;;;;21.27;15.48;;;20.30;99.90;;;;;;4991646;28;20556;-44
2021/07/14 02:09:17;;;;;;;23.10;17.33;;;20.30;99.90;;;;;;4991362;28;20014;-43
2021/07/14 02:11:46;;;;;;;22.50;16.30;;;20.30;99.90;;;;;;4991291;28;20026;-43
2021/07/14 02:14:18;;;;;;;22.83;15.93;;;20.30;99.90;;;;;;4992092;28;20533;-43
2021/07/14 02:16:46;;;;;;;22.42;15.32;;;20.30;99.90;;;;;;4991214;28;20347;-41
2021/07/14 02:19:15;;;;;;;17.80;15.13;;;20.30;99.90;;;;;;4992240;28;20029;-43
2021/07/14 02:21:41;;;;;;;22.20;16.83;;;20.30;99.90;;;;;;4990760;28;20030;-41
2021/07/14 02:24:10;;;;;;;23.05;16.15;;;20.30;99.90;;;;;;4991165;28;20033;-43
2021/07/14 02:26:36;;;;;;;21.23;15.48;;;20.20;99.90;;;;;;4990954;28;20038;-43
2021/07/14 02:29:03;;;;;;;21.90;17.02;;;20.10;99.90;;;;;;4991778;28;20504;-44
2021/07/14 02:31:29;;;;;;;22.23;16.52;;;20.10;99.90;;;;;;4990404;28;20038;-43
2021/07/14 02:33:54;;;;;;;22.40;15.98;;;20.10;99.90;;;;;;4991303;28;20076;-44
2021/07/14 02:36:21;;;;;;;23.65;15.98;;;20.00;99.90;;;;;;4991816;28;20026;-42
2021/07/14 02:38:56;;;;;;;24.15;17.70;;;20.00;99.90;;;;;;4990684;28;20021;-44
2021/07/14 02:41:27;;;;;;;22.10;16.80;;;20.10;99.90;;;;;;4971499;28;20027;-41
2021/07/14 02:44:08;;;;;;;24.03;17.17;;;20.10;99.90;;;;;;4986872;28;20109;-43
2021/07/14 02:46:37;;;;;;;23.42;15.63;;;20.10;99.90;;;;;;4970632;28;20054;-44
2021/07/14 02:49:06;;;;;;;20.55;15.18;;;20.20;99.90;;;;;;4986721;28;20018;-44
2021/07/14 02:51:34;;;;;;;26.08;18.10;;;20.20;99.90;;;;;;4989776;28;20024;-41
2021/07/14 02:54:02;;;;;;;31.35;18.95;;;20.10;99.90;;;;;;4991194;28;20026;-43
2021/07/14 02:56:30;;;;;;;25.50;16.98;;;20.10;99.90;;;;;;4990540;28;20018;-43
2021/07/14 02:59:00;;;;;;;25.20;17.40;;;20.10;99.90;;;;;;4990635;28;20015;-43
2021/07/14 03:01:27;;;;;;;27.27;17.63;;;20.10;99.90;;;;;;4990645;28;20102;-43
2021/07/14 03:03:54;;;;;;;25.48;16.40;;;20.10;99.90;;;;;;4990857;28;20512;-43
2021/07/14 03:06:21;;;;;;;21.38;15.55;;;20.10;99.90;;;;;;4989544;28;20398;-41
2021/07/14 03:08:50;;;;;;;24.00;15.88;;;20.10;99.90;;;;;;4991211;28;20433;-44
2021/07/14 03:11:17;;;;;;;26.50;18.48;;;20.10;99.90;;;;;;4991473;28;20049;-43
2021/07/14 03:13:47;;;;;;;32.53;19.95;;;20.10;99.90;;;;;;4989068;28;20474;-44
2021/07/14 03:16:13;;;;;;;31.83;19.23;;;20.10;99.90;;;;;;4980450;28;20034;-42
2021/07/14 03:18:41;;;;;;;27.65;19.05;;;20.10;99.90;;;;;;4989546;28;20031;-43
2021/07/14 03:21:08;;;;;;;28.02;18.88;;;20.10;99.90;;;;;;4991060;28;20040;-44
2021/07/14 03:23:34;;;;;;;27.23;18.20;;;20.20;99.90;;;;;;4989920;28;20026;-42
2021/07/14 03:26:01;;;;;;;26.10;17.75;;;20.10;99.90;;;;;;4990684;28;20066;-42
2021/07/14 03:28:30;;;;;;;27.95;19.00;;;20.10;99.90;;;;;;4989117;28;20034;-43
2021/07/14 03:31:01;;;;;;;29.23;17.95;;;20.20;99.90;;;;;;4990148;28;20063;-43
2021/07/14 03:33:31;;;;;;;26.30;19.05;;;20.20;99.90;;;;;;4990252;28;20050;-43
2021/07/14 03:35:58;;;;;;;26.63;18.95;;;20.20;99.90;;;;;;4990635;28;20037;-43
2021/07/14 03:38:29;;;;;;;25.08;18.02;;;20.20;99.90;;;;;;4989917;28;20031;-44
2021/07/14 03:40:56;;;;;;;21.98;16.00;;;20.10;99.90;;;;;;4989951;28;20030;-43
2021/07/14 03:43:27;;;;;;;26.13;18.80;;;20.10;99.90;;;;;;4989953;28;20113;-42
2021/07/14 03:45:54;;;;;;;24.58;18.20;;;20.10;99.90;;;;;;4990129;28;20031;-43
2021/07/14 03:48:24;;;;;;;28.83;20.60;;;20.10;99.90;;;;;;4989641;28;20022;-41
2021/07/14 03:50:50;;;;;;;26.23;18.90;;;20.10;99.90;;;;;;4990347;28;20014;-43
2021/07/14 03:53:18;;;;;;;26.08;19.98;;;20.10;99.90;;;;;;4990774;28;20019;-43
2021/07/14 03:55:46;;;;;;;27.27;19.98;;;20.10;99.90;;;;;;4988998;28;20109;-41
2021/07/14 03:58:15;;;;;;;24.63;17.90;;;20.10;99.90;;;;;;4990710;28;20068;-42
2021/07/14 04:00:41;;;;;;;26.00;18.75;;;20.00;99.90;;;;;;4989488;28;20050;-43
2021/07/14 04:03:09;;;;;;;22.48;16.42;;;20.00;99.90;;;;;;4990018;28;20043;-43
2021/07/14 04:05:41;;;;;;;20.48;16.27;;;20.00;99.90;;;;;;4989214;28;20039;-47
2021/07/14 04:08:08;;;;;;;26.20;17.45;;;20.00;99.90;;;;;;4990524;28;20018;-43
2021/07/14 04:10:34;;;;;;;25.02;17.45;;;20.00;99.90;;;;;;4988494;28;20459;-43
2021/07/14 04:12:59;;;;;;;19.88;15.00;;;20.00;99.90;;;;;;4990395;28;20030;-43
2021/07/14 04:15:25;;;;;;;23.00;15.20;;;20.00;99.90;;;;;;4989207;28;20134;-43
2021/07/14 04:17:51;;;;;;;20.52;15.63;;;20.00;99.90;;;;;;4989434;28;20026;-43
2021/07/14 04:20:16;;;;;;;18.33;13.95;;;20.00;99.90;;;;;;4989924;28;20027;-41
2021/07/14 04:22:42;;;;;;;18.67;15.10;;;20.00;99.90;;;;;;4988690;28;20061;-43
2021/07/14 04:25:08;;;;;;;26.13;16.33;;;19.90;99.90;;;;;;4989485;28;20038;-42
2021/07/14 04:27:36;;;;;;;21.77;16.35;;;19.90;99.90;;;;;;4991756;28;20041;-44
2021/07/14 04:30:03;;;;;;;19.67;14.70;;;19.90;99.90;;;;;;4992926;28;20019;-42
2021/07/14 04:32:28;;;;;;;20.50;14.70;;;20.00;99.90;;;;;;4992016;28;20081;-43
2021/07/14 04:34:54;;;;;;;21.58;16.05;;;20.00;99.90;;;;;;4993653;28;20023;-43
2021/07/14 04:37:19;;;;;;;20.27;16.15;;;20.00;99.90;;;;;;4992573;28;20068;-42
2021/07/14 04:39:45;;;;;;;18.45;14.32;;;19.90;99.90;;;;;;4993022;28;20034;-43
2021/07/14 04:42:11;;;;;;;19.58;14.73;;;20.00;99.90;;;;;;4993448;28;20022;-41
2021/07/14 04:44:47;;;;;;;19.05;14.45;;;19.90;99.90;;;;;;4991398;28;20113;-43
2021/07/14 04:47:12;;;;;;;19.67;14.63;;;20.00;99.90;;;;;;4993841;28;20026;-43
2021/07/14 04:49:38;;;;;;;21.75;14.52;;;20.00;99.90;;;;;;4992367;28;20036;-43
2021/07/14 04:52:04;;;;;;;19.15;14.30;;;20.00;99.90;;;;;;4992832;28;20496;-43
2021/07/14 04:54:29;;;;;;;21.90;14.45;;;20.00;99.90;;;;;;4992618;28;20030;-41
2021/07/14 04:56:55;;;;;;;18.17;12.88;;;20.00;99.90;;;;;;4992723;28;20034;-44
2021/07/14 04:59:20;;;;;;;18.67;13.55;;;20.00;99.90;;;;;;4992237;28;20022;-43
2021/07/14 05:01:46;;;;;;;16.95;12.98;;;20.00;99.90;;;;;;4992581;28;20421;-43
2021/07/14 05:04:12;;;;;;;22.77;15.00;;;20.10;99.90;;;;;;4993399;28;20029;-43
2021/07/14 05:06:38;;;;;;;18.80;14.75;;;20.00;99.90;;;;;;4991464;28;20575;-43
2021/07/14 05:09:03;;;;;;;18.88;13.85;;;20.10;99.90;;;;;;4992305;28;20030;-44
2021/07/14 05:11:29;;;;;;;19.05;14.48;;;20.10;99.90;;;;;;4992330;28;20038;-44
2021/07/14 05:13:54;;;;;;;17.92;14.10;;;20.10;99.90;;;;;;4991600;28;20045;-43
2021/07/14 05:16:20;;;;;;;20.25;14.25;;;20.00;99.90;;;;;;4992799;28;20050;-44
2021/07/14 05:18:45;;;;;;;19.60;13.35;;;20.00;99.90;;;;;;4992334;28;20497;-43
2021/07/14 05:21:11;;;;;;;19.60;13.05;;;20.10;99.90;;;;;;4991754;28;20072;-42
2021/07/14 05:23:37;;;;;;;18.95;13.30;;;20.10;99.90;;;;;;4991116;28;20023;-41
2021/07/14 05:26:02;;;;;;;16.15;12.93;;;20.10;99.90;;;;;;4992472;28;20388;-42
2021/07/14 05:28:28;;;;;;;14.90;11.38;;;20.10;99.90;;;;;;4991778;28;20022;-41
2021/07/14 05:30:54;;;;;;;16.00;12.93;;;20.10;99.90;;;;;;4992316;28;20482;-40
2021/07/14 05:33:20;;;;;;;17.25;12.90;;;20.10;99.90;;;;;;4991846;28;20018;-42
2021/07/14 05:35:46;;;;;;;17.20;13.70;;;20.10;99.90;;;;;;4991349;28;20018;-42
2021/07/14 05:38:19;;;;;;;13.65;11.85;;;20.10;99.90;;;;;;4991959;28;20122;-39
2021/07/14 05:40:45;;;;;;;18.13;13.63;;;20.10;99.90;;;;;;4991520;28;20432;-43
2021/07/14 05:43:11;;;;;;;17.27;13.48;;;20.20;99.90;;;;;;4992213;28;20014;-40
2021/07/14 05:45:37;;;;;;;21.85;15.27;;;20.20;99.90;;;;;;4991292;28;20029;-42
2021/07/14 05:48:06;;;;;;;17.17;14.52;;;20.10;99.90;;;;;;4992354;28;20022;-42
2021/07/14 05:50:31;;;;;;;20.15;15.38;;;20.10;99.90;;;;;;4991323;28;20057;-43
2021/07/14 05:52:57;;;;;;;19.73;15.02;;;20.10;99.90;;;;;;4992647;28;20070;-43
2021/07/14 05:55:22;;;;;;;18.50;14.05;;;20.10;99.90;;;;;;4990990;28;20553;-43
2021/07/14 05:57:51;;;;;;;18.38;15.07;;;20.10;99.90;;;;;;4991067;28;20029;-41
2021/07/14 06:00:17;;;;;;;18.08;13.05;;;20.10;99.90;;;;;;4991646;28;20035;-43
2021/07/14 06:02:43;;;;;;;16.95;14.32;;;20.10;99.90;;;;;;4990687;28;20030;-47
2021/07/14 06:05:09;;;;;;;18.30;14.68;;;20.10;99.90;;;;;;4991738;28;20057;-48
2021/07/14 06:07:35;;;;;;;18.20;15.35;;;20.20;99.90;;;;;;4990915;28;20065;-46
2021/07/14 06:10:01;;;;;;;17.98;14.18;;;20.20;99.90;;;;;;4990924;28;20054;-47
2021/07/14 06:12:26;;;;;;;16.33;13.32;;;20.30;99.90;;;;;;4991033;28;20533;-46
2021/07/14 06:14:52;;;;;;;16.60;14.15;;;20.30;99.90;;;;;;4991379;28;20050;-47
2021/07/14 06:17:20;;;;;;;19.77;14.73;;;20.30;99.90;;;;;;4991087;28;20081;-47
2021/07/14 06:19:46;;;;;;;14.60;13.05;;;20.40;99.90;;;;;;4991035;28;20055;-45
2021/07/14 06:22:12;;;;;;;13.88;12.30;;;20.40;99.90;;;;;;4991505;28;20014;-46
2021/07/14 06:24:39;;;;;;;13.40;11.38;;;20.40;99.90;;;;;;4990652;28;20029;-47
2021/07/14 06:27:05;;;;;;;14.77;11.95;;;20.50;99.90;;;;;;4991359;28;20121;-46
2021/07/14 06:29:31;;;;;;;14.52;11.93;;;20.50;99.90;;;;;;4990133;28;20026;-48
2021/07/14 06:31:56;;;;;;;15.32;11.93;;;20.60;99.90;;;;;;4991326;28;20038;-48
2021/07/14 06:34:22;;;;;;;19.45;14.25;;;20.60;99.90;;;;;;4990174;28;20383;-43
2021/07/14 06:36:47;;;;;;;17.23;13.63;;;20.50;99.90;;;;;;4989849;28;20348;-46
2021/07/14 06:39:13;;;;;;;15.60;13.13;;;20.50;99.90;;;;;;4991393;28;20034;-47
2021/07/14 06:41:39;;;;;;;19.48;14.50;;;20.50;99.90;;;;;;4990178;28;20027;-48
2021/07/14 06:44:05;;;;;;;18.85;14.98;;;20.50;99.90;;;;;;4991166;28;20053;-47
2021/07/14 06:46:31;;;;;;;20.23;15.00;;;20.60;99.90;;;;;;4989825;28;20062;-47
2021/07/14 06:48:58;;;;;;;16.58;12.73;;;20.60;99.90;;;;;;4990368;28;20019;-45
2021/07/14 06:51:24;;;;;;;17.13;13.57;;;20.60;99.90;;;;;;4989824;28;20030;-45
2021/07/14 06:53:50;;;;;;;20.80;14.60;;;20.60;99.90;;;;;;4991184;28;20022;-47
2021/07/14 06:56:15;;;;;;;17.27;13.65;;;20.70;99.90;;;;;;4991117;28;20022;-48
2021/07/14 06:58:41;;;;;;;17.70;13.02;;;20.70;99.90;;;;;;4989813;28;20466;-47
2021/07/14 07:01:08;;;;;;;16.00;12.13;;;20.70;99.90;;;;;;4990761;28;20053;-47
2021/07/14 07:03:34;;;;;;;17.10;13.82;;;20.70;99.90;;;;;;4989694;28;20373;-46
2021/07/14 07:06:03;;;;;;;15.20;13.15;;;20.70;99.90;;;;;;4989959;28;20464;-46
2021/07/14 07:08:29;;;;;;;13.75;11.60;;;20.70;99.90;;;;;;4990192;28;20014;-48
2021/07/14 07:10:55;;;;;;;16.50;13.52;;;20.80;99.90;;;;;;4989988;28;20037;-46
2021/07/14 07:13:20;;;;;;;16.05;13.10;;;20.80;99.90;;;;;;4989738;28;20503;-48
2021/07/14 07:15:46;;;;;;;16.77;12.80;;;20.80;99.90;;;;;;4989969;28;20544;-44
2021/07/14 07:18:12;;;;;;;13.27;11.60;;;20.90;99.90;;;;;;4990038;28;20033;-46
2021/07/14 07:20:38;;;;;;;13.05;11.65;;;20.90;99.90;;;;;;4989471;28;20030;-47
2021/07/14 07:23:05;;;;;;;13.88;11.82;;;20.90;99.90;;;;;;4989981;28;20030;-45
2021/07/14 07:25:30;;;;;;;14.38;12.90;;;20.80;99.90;;;;;;4989503;28;20113;-45
2021/07/14 07:27:59;;;;;;;13.25;11.48;;;20.80;99.90;;;;;;4989268;28;20022;-45
2021/07/14 07:30:24;;;;;;;13.30;11.63;;;20.80;99.90;;;;;;4989861;28;20386;-48
2021/07/14 07:32:50;;;;;;;13.73;11.80;;;20.90;99.90;;;;;;4989190;28;20027;-48
2021/07/14 07:35:16;;;;;;;16.25;13.38;;;20.90;99.90;;;;;;4989765;28;20026;-47
2021/07/14 07:37:41;;;;;;;17.67;13.45;;;20.90;99.90;;;;;;4989934;28;20026;-47
2021/07/14 07:40:07;;;;;;;15.40;12.65;;;20.80;99.90;;;;;;4989505;28;20022;-48
2021/07/14 07:42:33;;;;;;;17.65;12.93;;;20.90;99.90;;;;;;4989180;28;20072;-47
2021/07/14 07:44:59;;;;;;;19.85;15.30;;;20.90;99.90;;;;;;4990377;28;20035;-47
2021/07/14 07:47:24;;;;;;;18.58;14.82;;;20.90;99.90;;;;;;4988499;28;20062;-45
2021/07/14 07:49:51;;;;;;;20.27;15.30;;;20.90;99.90;;;;;;4989971;28;20429;-46
2021/07/14 07:52:21;;;;;;;22.88;15.15;;;20.90;99.90;;;;;;4990719;28;20022;-48
2021/07/14 07:54:47;;;;;;;20.85;15.95;;;20.90;99.90;;;;;;4989505;28;20368;-46
2021/07/14 07:57:13;;;;;;;23.02;17.13;;;20.90;99.90;;;;;;4990282;28;20027;-46
2021/07/14 07:59:38;;;;;;;21.60;17.02;;;20.90;99.90;;;;;;4988899;28;20500;-44
2021/07/14 08:02:04;;;;;;;20.70;16.45;;;20.80;99.90;;;;;;4992159;28;20568;-44
2021/07/14 08:04:30;;;;;;;22.92;16.77;;;20.80;99.90;;;;;;4993515;28;20029;-44
2021/07/14 08:06:56;;;;;;;21.40;16.83;;;20.80;99.90;;;;;;4993877;28;20034;-47
2021/07/14 08:09:21;;;;;;;20.88;15.82;;;20.80;99.90;;;;;;4992810;28;20022;-44
2021/07/14 08:11:48;;;;;;;19.13;14.95;;;20.70;99.90;;;;;;4993856;28;20129;-46
2021/07/14 08:14:16;;;;;;;20.05;15.32;;;20.70;99.90;;;;;;4994170;28;20120;-43
2021/07/14 08:16:42;;;;;;;19.10;14.82;;;20.70;99.90;;;;;;4992968;28;20057;-44
2021/07/14 08:19:08;;;;;;;18.88;15.43;;;20.80;99.90;;;;;;4993847;28;20029;-45
2021/07/14 08:21:34;;;;;;;18.92;15.00;;;20.80;99.90;;;;;;4993764;28;20034;-46
2021/07/14 08:24:00;;;;;;;22.30;15.43;;;20.80;99.90;;;;;;4993026;28;20105;-45
2021/07/14 08:26:25;;;;;;;19.23;15.05;;;20.90;99.90;;;;;;4993445;28;20077;-44
2021/07/14 08:28:51;;;;;;;17.65;13.63;;;20.90;99.90;;;;;;4993563;28;20073;-44
2021/07/14 08:31:17;;;;;;;19.88;14.68;;;20.90;99.90;;;;;;4989902;28;20285;-45
2021/07/14 08:33:43;;;;;;;17.95;14.68;;;20.90;99.90;;;;;;4993633;28;20037;-46
2021/07/14 08:36:09;;;;;;;19.58;16.02;;;20.90;99.90;;;;;;4993165;28;20018;-46
2021/07/14 08:38:34;;;;;;;17.30;13.95;;;20.80;99.90;;;;;;4992914;28;20026;-46
2021/07/14 08:41:01;;;;;;;16.55;14.27;;;20.80;99.90;;;;;;4993353;28;20062;-46
2021/07/14 08:43:31;;;;;;;16.83;14.18;;;20.80;99.90;;;;;;4992965;28;20026;-45
2021/07/14 08:46:01;;;;;;;17.10;13.35;;;20.80;99.90;;;;;;4993034;28;20549;-47
2021/07/14 08:48:27;;;;;;;14.02;12.32;;;20.80;99.90;;;;;;4992932;28;20073;-47
2021/07/14 08:50:58;;;;;;;15.57;13.18;;;20.80;99.90;;;;;;4992462;28;20492;-47
2021/07/14 08:53:24;;;;;;;20.67;14.15;;;20.80;99.90;;;;;;4993055;28;20050;-45
2021/07/14 08:55:50;;;;;;;19.73;15.68;;;20.90;99.90;;;;;;4993199;28;20024;-46
2021/07/14 08:58:20;;;;;;;16.48;13.63;;;20.90;99.90;;;;;;4993032;28;20109;-46
2021/07/14 09:00:47;;;;;;;15.57;13.15;;;20.90;99.90;;;;;;4992670;28;20105;-46
2021/07/14 09:03:14;;;;;;;16.45;13.70;;;20.90;99.90;;;;;;4993886;28;20030;-44
2021/07/14 09:05:39;;;;;;;18.55;15.48;;;20.90;99.90;;;;;;4991864;28;20033;-46
2021/07/14 09:08:05;;;;;;;18.10;15.70;;;21.00;99.90;;;;;;4993297;28;20030;-47
2021/07/14 09:10:31;;;;;;;17.52;15.07;;;21.00;99.90;;;;;;4993046;28;20401;-43
2021/07/14 09:12:58;;;;;;;19.63;15.88;;;21.10;99.90;;;;;;4991305;28;20474;-47
2021/07/14 09:15:28;;;;;;;16.98;14.15;;;21.00;99.90;;;;;;4992136;28;20046;-46
2021/07/14 09:17:56;;;;;;;17.83;14.85;;;21.10;99.90;;;;;;4990451;28;20105;-47
2021/07/14 09:20:30;;;;;;;22.23;15.73;;;21.10;99.90;;;;;;4991907;28;20390;-46
2021/07/14 09:23:10;;;;;;;20.25;13.90;;;21.10;99.90;;;;;;4992503;28;20314;-42
2021/07/14 09:25:45;;;;;;;22.65;16.17;;;21.00;99.90;;;;;;4991498;28;20038;-46
2021/07/14 09:28:12;;;;;;;21.15;16.85;;;21.00;99.90;;;;;;4989413;28;20026;-45
2021/07/14 09:30:40;;;;;;;17.70;15.23;;;21.00;99.90;;;;;;4992387;28;20109;-44
2021/07/14 09:33:07;;;;;;;21.48;15.20;;;20.90;99.90;;;;;;4991822;28;20030;-45
2021/07/14 09:35:38;;;;;;;19.77;15.98;;;20.90;99.90;;;;;;4992570;28;20029;-46
2021/07/14 09:38:15;;;;;;;21.02;15.90;;;20.90;99.90;;;;;;4991808;28;20041;-44
2021/07/14 09:40:42;;;;;;;22.33;15.75;;;20.90;99.90;;;;;;4991412;28;20023;-44
2021/07/14 09:43:10;;;;;;;23.83;17.15;;;20.90;99.90;;;;;;4992508;28;20018;-46
2021/07/14 09:45:45;;;;;;;20.02;15.48;;;20.90;99.90;;;;;;4992008;28;20428;-46
2021/07/14 09:48:18;;;;;;;20.10;15.93;;;21.00;99.90;;;;;;4991488;28;20109;-46
2021/07/14 09:50:53;;;;;;;24.98;19.00;;;21.00;99.90;;;;;;4972487;28;20048;-44
2021/07/14 09:53:20;;;;;;;20.77;16.08;;;21.10;99.90;;;;;;4987825;28;20030;-46
2021/07/14 09:55:53;;;;;;;22.85;16.42;;;21.10;99.90;;;;;;4991966;28;20397;-43
2021/07/14 09:58:30;;;;;;;23.02;16.98;;;21.10;99.90;;;;;;4991958;28;20058;-46
2021/07/14 10:01:02;;;;;;;22.02;16.40;;;21.10;99.90;;;;;;4991855;28;20031;-45
2021/07/14 10:03:36;;;;;;;17.83;14.95;;;21.10;99.90;;;;;;4991174;28;20026;-45
2021/07/14 10:06:11;;;;;;;19.45;16.40;;;21.10;99.90;;;;;;4991841;28;20034;-46
2021/07/14 10:08:42;;;;;;;24.02;16.83;;;21.20;99.90;;;;;;4991076;28;20037;-46
2021/07/14 10:11:12;;;;;;;23.83;18.02;;;21.10;99.90;;;;;;4992035;28;20109;-46
2021/07/14 10:13:40;;;;;;;25.33;17.83;;;21.10;99.90;;;;;;4990798;28;20010;-46
2021/07/14 10:16:06;;;;;;;26.60;20.63;;;21.10;99.90;;;;;;4991434;28;20491;-42
2021/07/14 10:18:32;;;;;;;27.00;20.05;;;21.00;99.90;;;;;;4991342;28;20014;-46
2021/07/14 10:21:03;;;;;;;27.63;19.92;;;21.00;99.90;;;;;;4991443;28;20518;-46
2021/07/14 10:23:31;;;;;;;26.15;20.25;;;20.90;99.90;;;;;;4990026;28;20489;-46
2021/07/14 10:25:59;;;;;;;25.50;18.65;;;20.90;99.90;;;;;;4990997;28;20193;-46
2021/07/14 10:28:27;;;;;;;28.38;21.35;;;20.90;99.90;;;;;;4990928;28;20021;-45
2021/07/14 10:30:53;;;;;;;25.70;20.08;;;20.90;99.90;;;;;;4992161;28;20092;-47
2021/07/14 10:33:20;;;;;;;28.85;20.30;;;20.90;99.90;;;;;;4991346;28;20018;-44
2021/07/14 10:35:49;;;;;;;27.38;19.20;;;20.90;99.90;;;;;;4990653;28;20034;-40
2021/07/14 10:38:19;;;;;;;27.42;19.10;;;20.90;99.90;;;;;;4990709;28;20443;-43
2021/07/14 10:40:49;;;;;;;27.08;19.63;;;20.90;99.90;;;;;;4991223;28;20031;-44
2021/07/14 10:43:21;;;;;;;26.90;20.55;;;20.90;99.90;;;;;;4990848;28;20101;-44
2021/07/14 10:45:48;;;;;;;27.40;20.07;;;20.90;99.90;;;;;;4987737;28;20030;-43
2021/07/14 10:48:16;;;;;;;27.77;20.40;;;20.80;99.90;;;;;;4991801;28;20022;-44
2021/07/14 10:50:42;;;;;;;29.70;20.30;;;20.80;99.90;;;;;;4989363;28;20497;-39
2021/07/14 10:53:11;;;;;;;25.58;20.33;;;20.70;99.90;;;;;;4990974;28;20023;-44
2021/07/14 10:55:38;;;;;;;28.80;21.60;;;20.70;99.90;;;;;;4990896;28;20030;-44
2021/07/14 10:58:04;;;;;;;29.20;19.67;;;20.70;99.90;;;;;;4990742;28;20076;-43
2021/07/14 11:00:37;;;;;;;23.27;18.45;;;20.70;99.90;;;;;;4990185;28;20038;-43
2021/07/14 11:03:03;;;;;;;28.73;19.90;;;20.70;99.90;;;;;;4990813;28;20026;-44
2021/07/14 11:05:45;;;;;;;25.67;20.00;;;20.70;99.90;;;;;;4989394;28;20059;-44
2021/07/14 11:08:10;;;;;;;29.73;19.77;;;20.70;99.90;;;;;;4991062;28;20102;-41
2021/07/14 11:10:38;;;;;;;30.40;20.05;;;20.70;99.90;;;;;;4990596;28;20018;-45
2021/07/14 11:13:28;;;;;;;28.80;19.55;;;20.70;99.90;;;;;;4990391;28;20022;-44
2021/07/14 11:15:55;;;;;;;28.83;20.33;;;20.70;99.90;;;;;;4989995;28;20039;-46
2021/07/14 11:18:29;;;;;;;27.75;17.63;;;20.70;99.90;;;;;;4990342;28;20385;-45
2021/07/14 11:20:58;;;;;;;26.65;19.45;;;20.70;99.90;;;;;;4990352;28;20042;-43
2021/07/14 11:23:26;;;;;;;26.73;18.30;;;20.80;99.90;;;;;;4990033;28;20022;-44
2021/07/14 11:25:55;;;;;;;25.50;18.17;;;20.90;99.90;;;;;;4990259;28;20041;-44
2021/07/14 11:28:25;;;;;;;21.60;16.33;;;20.90;99.90;;;;;;4990177;28;20022;-43
2021/07/14 11:30:53;;;;;;;26.20;18.45;;;21.00;99.90;;;;;;4990594;28;20129;-44
2021/07/14 11:33:38;;;;;;;27.20;18.50;;;21.10;99.90;;;;;;4990070;28;20173;-44
2021/07/14 11:36:10;;;;;;;30.52;18.05;;;21.10;99.90;;;;;;4990407;28;20026;-42
2021/07/14 11:38:53;;;;;;;32.15;18.92;;;21.10;99.90;;;;;;4990367;28;20424;-41
2021/07/14 11:41:25;;;;;;;29.88;19.65;;;21.00;99.90;;;;;;4990327;28;20027;-41
2021/07/14 11:43:53;;;;;;;27.50;19.30;;;20.90;99.90;;;;;;4990750;28;20018;-43
2021/07/14 11:46:24;;;;;;;27.33;18.23;;;20.90;99.90;;;;;;4989527;28;20054;-40
2021/07/14 11:49:03;;;;;;;24.13;17.65;;;20.80;99.90;;;;;;4990711;28;20316;-43
2021/07/14 11:51:29;;;;;;;26.85;19.08;;;20.80;99.90;;;;;;4989575;28;20033;-43
2021/07/14 11:53:58;;;;;;;26.63;18.40;;;20.80;99.90;;;;;;4989618;28;20609;-42
2021/07/14 11:56:26;;;;;;;34.85;21.55;;;20.70;99.90;;;;;;4989626;28;20029;-43
2021/07/14 11:59:11;;;;;;;30.23;19.70;;;20.70;99.90;;;;;;4990411;28;20027;-43
2021/07/14 12:01:44;;;;;;;27.20;16.95;;;20.60;99.90;;;;;;4989190;28;20022;-40
2021/07/14 12:04:10;;;;;;;27.95;18.48;;;20.60;99.90;;;;;;4990028;28;20022;-40
2021/07/14 12:07:11;;;;;;;29.30;19.10;;;20.70;99.90;;;;;;4989217;28;20389;-41
2021/07/14 12:09:40;;;;;;;26.35;19.55;;;20.70;99.90;;;;;;4986909;28;20034;-43
2021/07/14 12:12:15;;;;;;;23.75;17.88;;;20.70;99.90;;;;;;4990320;28;20058;-40
2021/07/14 12:14:44;;;;;;;25.38;19.08;;;20.80;99.90;;;;;;4988859;28;20474;-44
2021/07/14 12:17:22;;;;;;;27.20;18.00;;;20.80;99.90;;;;;;4989658;28;20029;-46
2021/07/14 12:19:58;;;;;;;26.20;18.25;;;20.80;99.90;;;;;;4990205;28;20023;-43
2021/07/14 12:22:30;;;;;;;23.70;17.73;;;20.90;99.90;;;;;;4989027;28;20104;-45
2021/07/14 12:25:03;;;;;;;22.85;17.10;;;20.90;99.90;;;;;;4990329;28;20026;-45
2021/07/14 12:27:32;;;;;;;23.40;16.15;;;20.80;99.90;;;;;;4989278;28;20022;-45
2021/07/14 12:30:07;;;;;;;19.40;14.90;;;20.80;99.90;;;;;;4989641;28;20481;-45
2021/07/14 12:32:40;;;;;;;21.40;14.93;;;20.90;99.90;;;;;;4988950;28;20080;-45
2021/07/14 12:35:42;;;;;;;19.80;14.40;;;20.90;99.90;;;;;;4989253;28;20037;-45
2021/07/14 12:38:14;;;;;;;18.13;15.17;;;21.00;99.90;;;;;;4976555;28;20390;-45
2021/07/14 12:40:47;;;;;;;18.30;14.52;;;21.10;99.90;;;;;;4989546;28;20058;-41
2021/07/14 12:43:19;;;;;;;21.58;16.00;;;21.20;99.90;;;;;;4989306;28;20097;-45
2021/07/14 12:45:46;;;;;;;21.80;16.00;;;21.20;99.90;;;;;;4989639;28;20089;-45